sensor_id;sensor_type;location;lat;lon;timestamp;temperature;humidity
1978;DHT22;989;53.016;8.346;2023-02-16T00:00:17;5.70;2.80
1978;DHT22;989;53.016;8.346;2023-02-16T00:02:45;5.80;1.00
1978;DHT22;989;53.016;8.346;2023-02-16T00:05:29;5.80;1.00
1978;DHT22;989;53.016;8.346;2023-02-16T00:07:57;5.80;1.00
1978;DHT22;989;53.016;8.346;2023-02-16T00:10:24;5.70;1.00
1978;DHT22;989;53.016;8.346;2023-02-16T00:12:51;5.70;1.00
1978;DHT22;989;53.016;8.346;2023-02-16T00:15:36;5.60;1.00
1978;DHT22;989;53.016;8.346;2023-02-16T00:18:02;5.60;1.00
1978;DHT22;989;53.016;8.346;2023-02-16T00:20:30;5.50;1.00
1978;DHT22;989;53.016;8.346;2023-02-16T00:22:56;5.40;1.00
1978;DHT22;989;53.016;8.346;2023-02-16T00:25:23;5.30;1.00
1978;DHT22;989;53.016;8.346;2023-02-16T00:27:49;5.10;1.00
1978;DHT22;989;53.016;8.346;2023-02-16T00:30:17;4.90;1.00
1978;DHT22;989;53.016;8.346;2023-02-16T00:32:44;4.80;1.00
1978;DHT22;989;53.016;8.346;2023-02-16T00:35:20;4.70;1.00
1978;DHT22;989;53.016;8.346;2023-02-16T00:37:47;4.70;2.00
1978;DHT22;989;53.016;8.346;2023-02-16T00:40:14;4.80;7.80
1978;DHT22;989;53.016;8.346;2023-02-16T00:42:42;4.90;11.00
1978;DHT22;989;53.016;8.346;2023-02-16T00:45:15;5.10;12.80
1978;DHT22;989;53.016;8.346;2023-02-16T00:47:43;5.10;12.90
1978;DHT22;989;53.016;8.346;2023-02-16T00:50:26;5.10;13.10
1978;DHT22;989;53.016;8.346;2023-02-16T00:52:56;5.20;11.00
1978;DHT22;989;53.016;8.346;2023-02-16T00:55:31;5.20;9.70
1978;DHT22;989;53.016;8.346;2023-02-16T00:58:20;5.20;9.30
1978;DHT22;989;53.016;8.346;2023-02-16T01:01:07;5.40;7.80
1978;DHT22;989;53.016;8.346;2023-02-16T01:03:35;5.30;3.00
1978;DHT22;989;53.016;8.346;2023-02-16T01:06:01;5.30;2.60
1978;DHT22;989;53.016;8.346;2023-02-16T01:08:45;5.30;2.60
1978;DHT22;989;53.016;8.346;2023-02-16T01:11:29;5.20;1.10
1978;DHT22;989;53.016;8.346;2023-02-16T01:13:56;5.20;1.00
1978;DHT22;989;53.016;8.346;2023-02-16T01:16:25;5.00;1.00
1978;DHT22;989;53.016;8.346;2023-02-16T01:18:53;4.90;1.00
1978;DHT22;989;53.016;8.346;2023-02-16T01:21:19;4.80;2.30
1978;DHT22;989;53.016;8.346;2023-02-16T01:23:46;4.70;1.00
1978;DHT22;989;53.016;8.346;2023-02-16T01:26:17;4.50;1.90
1978;DHT22;989;53.016;8.346;2023-02-16T01:28:44;4.40;5.60
1978;DHT22;989;53.016;8.346;2023-02-16T01:31:11;4.40;7.90
1978;DHT22;989;53.016;8.346;2023-02-16T01:33:37;4.30;10.80
1978;DHT22;989;53.016;8.346;2023-02-16T01:36:03;4.20;11.50
1978;DHT22;989;53.016;8.346;2023-02-16T01:38:30;4.10;13.40
1978;DHT22;989;53.016;8.346;2023-02-16T01:41:12;4.10;18.70
1978;DHT22;989;53.016;8.346;2023-02-16T01:46:51;4.20;27.10
1978;DHT22;989;53.016;8.346;2023-02-16T01:49:20;4.30;28.50
1978;DHT22;989;53.016;8.346;2023-02-16T01:54:39;4.40;34.50
1978;DHT22;989;53.016;8.346;2023-02-16T02:02:20;4.60;33.20
1978;DHT22;989;53.016;8.346;2023-02-16T02:05:28;4.60;31.30
1978;DHT22;989;53.016;8.346;2023-02-16T02:13:49;4.50;27.80
1978;DHT22;989;53.016;8.346;2023-02-16T02:16:20;4.50;25.80
1978;DHT22;989;53.016;8.346;2023-02-16T02:18:47;4.50;24.10
1978;DHT22;989;53.016;8.346;2023-02-16T02:25:06;4.50;21.90
1978;DHT22;989;53.016;8.346;2023-02-16T02:33:55;4.60;22.50
1978;DHT22;989;53.016;8.346;2023-02-16T02:42:56;4.60;20.70
1978;DHT22;989;53.016;8.346;2023-02-16T02:45:33;4.70;20.60
1978;DHT22;989;53.016;8.346;2023-02-16T02:48:01;4.70;17.70
1978;DHT22;989;53.016;8.346;2023-02-16T02:50:46;4.70;21.00
1978;DHT22;989;53.016;8.346;2023-02-16T02:53:44;4.80;19.80
1978;DHT22;989;53.016;8.346;2023-02-16T02:56:15;4.80;17.70
1978;DHT22;989;53.016;8.346;2023-02-16T02:59:04;4.90;17.70
1978;DHT22;989;53.016;8.346;2023-02-16T03:01:55;4.90;14.90
1978;DHT22;989;53.016;8.346;2023-02-16T03:04:27;4.90;13.50
1978;DHT22;989;53.016;8.346;2023-02-16T03:06:56;4.80;9.90
1978;DHT22;989;53.016;8.346;2023-02-16T03:09:23;4.70;9.90
1978;DHT22;989;53.016;8.346;2023-02-16T03:11:49;4.80;10.20
1978;DHT22;989;53.016;8.346;2023-02-16T03:14:42;4.80;11.70
1978;DHT22;989;53.016;8.346;2023-02-16T03:17:14;4.80;10.40
1978;DHT22;989;53.016;8.346;2023-02-16T03:20:03;4.70;7.70
1978;DHT22;989;53.016;8.346;2023-02-16T03:22:49;4.70;10.10
1978;DHT22;989;53.016;8.346;2023-02-16T03:25:35;4.70;11.00
1978;DHT22;989;53.016;8.346;2023-02-16T03:28:24;4.70;12.50
1978;DHT22;989;53.016;8.346;2023-02-16T03:31:16;4.80;12.60
1978;DHT22;989;53.016;8.346;2023-02-16T03:33:45;4.80;12.70
1978;DHT22;989;53.016;8.346;2023-02-16T03:36:11;4.70;9.00
1978;DHT22;989;53.016;8.346;2023-02-16T03:38:37;4.70;10.00
1978;DHT22;989;53.016;8.346;2023-02-16T03:41:04;4.70;13.20
1978;DHT22;989;53.016;8.346;2023-02-16T03:43:30;4.90;12.70
1978;DHT22;989;53.016;8.346;2023-02-16T03:45:56;4.90;10.10
1978;DHT22;989;53.016;8.346;2023-02-16T03:48:22;5.00;8.40
1978;DHT22;989;53.016;8.346;2023-02-16T03:50:48;5.00;7.20
1978;DHT22;989;53.016;8.346;2023-02-16T03:53:13;5.10;4.40
1978;DHT22;989;53.016;8.346;2023-02-16T03:55:42;5.10;5.00
1978;DHT22;989;53.016;8.346;2023-02-16T03:58:12;5.10;5.00
1978;DHT22;989;53.016;8.346;2023-02-16T04:00:40;5.10;3.30
1978;DHT22;989;53.016;8.346;2023-02-16T04:03:07;5.10;2.70
1978;DHT22;989;53.016;8.346;2023-02-16T04:05:37;5.10;2.20
1978;DHT22;989;53.016;8.346;2023-02-16T04:08:03;5.20;2.30
1978;DHT22;989;53.016;8.346;2023-02-16T04:10:29;5.20;1.90
1978;DHT22;989;53.016;8.346;2023-02-16T04:12:55;5.20;1.00
1978;DHT22;989;53.016;8.346;2023-02-16T04:15:23;5.20;1.00
1978;DHT22;989;53.016;8.346;2023-02-16T04:17:50;5.20;1.00
1978;DHT22;989;53.016;8.346;2023-02-16T04:20:22;5.20;1.00
1978;DHT22;989;53.016;8.346;2023-02-16T04:22:50;5.30;1.00
1978;DHT22;989;53.016;8.346;2023-02-16T04:25:16;5.20;1.00
1978;DHT22;989;53.016;8.346;2023-02-16T04:27:43;5.20;1.00
1978;DHT22;989;53.016;8.346;2023-02-16T04:30:15;5.20;1.00
1978;DHT22;989;53.016;8.346;2023-02-16T04:32:42;5.30;1.00
1978;DHT22;989;53.016;8.346;2023-02-16T04:35:08;5.40;1.00
1978;DHT22;989;53.016;8.346;2023-02-16T04:37:34;5.30;1.00
1978;DHT22;989;53.016;8.346;2023-02-16T04:40:00;5.30;1.00
1978;DHT22;989;53.016;8.346;2023-02-16T04:42:25;5.20;1.00
1978;DHT22;989;53.016;8.346;2023-02-16T04:44:51;5.20;1.00
1978;DHT22;989;53.016;8.346;2023-02-16T04:47:17;5.20;1.00
1978;DHT22;989;53.016;8.346;2023-02-16T04:49:43;5.10;1.00
1978;DHT22;989;53.016;8.346;2023-02-16T04:52:11;5.10;1.00
1978;DHT22;989;53.016;8.346;2023-02-16T04:54:38;5.10;1.00
1978;DHT22;989;53.016;8.346;2023-02-16T04:57:04;5.20;1.00
1978;DHT22;989;53.016;8.346;2023-02-16T04:59:30;5.20;1.40
1978;DHT22;989;53.016;8.346;2023-02-16T05:01:55;5.20;1.00
1978;DHT22;989;53.016;8.346;2023-02-16T05:04:22;5.20;1.00
1978;DHT22;989;53.016;8.346;2023-02-16T05:06:49;5.20;1.00
1978;DHT22;989;53.016;8.346;2023-02-16T05:09:15;5.20;1.00
1978;DHT22;989;53.016;8.346;2023-02-16T05:11:41;5.20;2.50
1978;DHT22;989;53.016;8.346;2023-02-16T05:14:32;5.30;3.00
1978;DHT22;989;53.016;8.346;2023-02-16T05:17:08;5.40;2.10
1978;DHT22;989;53.016;8.346;2023-02-16T05:19:37;5.50;1.10
1978;DHT22;989;53.016;8.346;2023-02-16T05:22:03;5.60;1.00
1978;DHT22;989;53.016;8.346;2023-02-16T05:24:29;5.60;1.00
1978;DHT22;989;53.016;8.346;2023-02-16T05:26:55;5.70;1.00
1978;DHT22;989;53.016;8.346;2023-02-16T05:29:21;5.70;1.00
1978;DHT22;989;53.016;8.346;2023-02-16T05:31:47;5.80;1.00
1978;DHT22;989;53.016;8.346;2023-02-16T05:34:12;5.90;1.00
1978;DHT22;989;53.016;8.346;2023-02-16T05:36:38;5.90;1.00
1978;DHT22;989;53.016;8.346;2023-02-16T05:39:04;5.90;1.00
1978;DHT22;989;53.016;8.346;2023-02-16T05:41:30;6.00;1.00
1978;DHT22;989;53.016;8.346;2023-02-16T05:43:58;6.00;1.00
1978;DHT22;989;53.016;8.346;2023-02-16T05:46:26;6.10;1.00
1978;DHT22;989;53.016;8.346;2023-02-16T05:48:53;6.10;1.00
1978;DHT22;989;53.016;8.346;2023-02-16T05:51:19;6.10;1.00
1978;DHT22;989;53.016;8.346;2023-02-16T05:53:45;6.20;1.00
1978;DHT22;989;53.016;8.346;2023-02-16T05:56:12;6.20;1.00
1978;DHT22;989;53.016;8.346;2023-02-16T05:58:38;6.20;1.00
1978;DHT22;989;53.016;8.346;2023-02-16T06:01:04;6.10;1.00
1978;DHT22;989;53.016;8.346;2023-02-16T06:03:31;6.20;1.00
1978;DHT22;989;53.016;8.346;2023-02-16T06:05:59;6.20;1.00
1978;DHT22;989;53.016;8.346;2023-02-16T06:08:26;6.20;1.00
1978;DHT22;989;53.016;8.346;2023-02-16T06:10:53;6.20;1.00
1978;DHT22;989;53.016;8.346;2023-02-16T06:13:20;6.30;1.00
1978;DHT22;989;53.016;8.346;2023-02-16T06:15:46;6.30;1.00
1978;DHT22;989;53.016;8.346;2023-02-16T06:18:15;6.40;1.00
1978;DHT22;989;53.016;8.346;2023-02-16T06:20:41;6.40;1.00
1978;DHT22;989;53.016;8.346;2023-02-16T06:23:08;6.40;1.00
1978;DHT22;989;53.016;8.346;2023-02-16T06:25:35;6.40;1.00
1978;DHT22;989;53.016;8.346;2023-02-16T06:28:01;6.40;1.00
1978;DHT22;989;53.016;8.346;2023-02-16T06:30:26;6.40;1.00
1978;DHT22;989;53.016;8.346;2023-02-16T06:32:52;6.50;1.00
1978;DHT22;989;53.016;8.346;2023-02-16T06:35:18;6.50;1.00
1978;DHT22;989;53.016;8.346;2023-02-16T06:37:44;6.50;1.00
1978;DHT22;989;53.016;8.346;2023-02-16T06:40:11;6.60;1.00
1978;DHT22;989;53.016;8.346;2023-02-16T06:42:41;6.60;1.00
1978;DHT22;989;53.016;8.346;2023-02-16T06:45:07;6.60;1.00
1978;DHT22;989;53.016;8.346;2023-02-16T06:47:34;6.60;1.00
1978;DHT22;989;53.016;8.346;2023-02-16T06:50:00;6.60;1.00
1978;DHT22;989;53.016;8.346;2023-02-16T06:52:27;6.70;1.00
1978;DHT22;989;53.016;8.346;2023-02-16T06:54:52;6.80;1.00
1978;DHT22;989;53.016;8.346;2023-02-16T06:57:18;6.80;1.00
1978;DHT22;989;53.016;8.346;2023-02-16T06:59:44;6.90;1.00
1978;DHT22;989;53.016;8.346;2023-02-16T07:02:10;6.90;1.00
1978;DHT22;989;53.016;8.346;2023-02-16T07:04:35;7.00;1.00
1978;DHT22;989;53.016;8.346;2023-02-16T07:07:02;7.00;1.00
1978;DHT22;989;53.016;8.346;2023-02-16T07:09:28;7.00;1.00
1978;DHT22;989;53.016;8.346;2023-02-16T07:11:53;6.90;1.00
1978;DHT22;989;53.016;8.346;2023-02-16T07:14:19;6.90;1.00
1978;DHT22;989;53.016;8.346;2023-02-16T07:16:45;6.90;1.00
1978;DHT22;989;53.016;8.346;2023-02-16T07:19:11;6.90;1.00
1978;DHT22;989;53.016;8.346;2023-02-16T07:21:36;6.80;1.00
1978;DHT22;989;53.016;8.346;2023-02-16T07:24:02;6.80;1.00
1978;DHT22;989;53.016;8.346;2023-02-16T07:26:28;6.90;1.00
1978;DHT22;989;53.016;8.346;2023-02-16T07:28:53;7.00;1.00
1978;DHT22;989;53.016;8.346;2023-02-16T07:31:19;7.00;1.00
1978;DHT22;989;53.016;8.346;2023-02-16T07:33:45;7.10;1.00
1978;DHT22;989;53.016;8.346;2023-02-16T07:36:11;7.10;1.00
1978;DHT22;989;53.016;8.346;2023-02-16T07:38:38;7.10;1.00
1978;DHT22;989;53.016;8.346;2023-02-16T07:41:06;7.10;1.00
1978;DHT22;989;53.016;8.346;2023-02-16T07:43:32;7.10;1.00
1978;DHT22;989;53.016;8.346;2023-02-16T07:45:59;7.10;1.00
1978;DHT22;989;53.016;8.346;2023-02-16T07:48:25;7.10;1.00
1978;DHT22;989;53.016;8.346;2023-02-16T07:50:51;7.20;1.00
1978;DHT22;989;53.016;8.346;2023-02-16T07:53:17;7.30;1.00
1978;DHT22;989;53.016;8.346;2023-02-16T07:55:44;7.20;1.00
1978;DHT22;989;53.016;8.346;2023-02-16T07:58:11;7.30;1.00
1978;DHT22;989;53.016;8.346;2023-02-16T08:00:55;7.30;1.00
1978;DHT22;989;53.016;8.346;2023-02-16T08:03:25;7.30;1.00
1978;DHT22;989;53.016;8.346;2023-02-16T08:05:50;7.30;1.00
1978;DHT22;989;53.016;8.346;2023-02-16T08:08:16;7.30;1.00
1978;DHT22;989;53.016;8.346;2023-02-16T08:10:41;7.30;1.00
1978;DHT22;989;53.016;8.346;2023-02-16T08:13:07;7.40;1.00
1978;DHT22;989;53.016;8.346;2023-02-16T08:15:33;7.40;1.00
1978;DHT22;989;53.016;8.346;2023-02-16T08:17:58;7.60;1.00
1978;DHT22;989;53.016;8.346;2023-02-16T08:20:24;7.60;1.00
1978;DHT22;989;53.016;8.346;2023-02-16T08:22:53;7.70;1.00
1978;DHT22;989;53.016;8.346;2023-02-16T08:25:18;7.70;1.00
1978;DHT22;989;53.016;8.346;2023-02-16T08:27:44;7.70;1.00
1978;DHT22;989;53.016;8.346;2023-02-16T08:30:10;7.70;1.00
1978;DHT22;989;53.016;8.346;2023-02-16T08:32:38;7.70;1.00
1978;DHT22;989;53.016;8.346;2023-02-16T08:35:06;7.80;1.00
1978;DHT22;989;53.016;8.346;2023-02-16T08:37:32;7.80;1.00
1978;DHT22;989;53.016;8.346;2023-02-16T08:39:59;7.80;1.00
1978;DHT22;989;53.016;8.346;2023-02-16T08:42:26;7.90;1.00
1978;DHT22;989;53.016;8.346;2023-02-16T08:44:52;7.90;1.00
1978;DHT22;989;53.016;8.346;2023-02-16T08:47:18;8.00;1.00
1978;DHT22;989;53.016;8.346;2023-02-16T08:49:45;8.10;1.00
1978;DHT22;989;53.016;8.346;2023-02-16T08:52:12;8.10;1.00
1978;DHT22;989;53.016;8.346;2023-02-16T08:54:38;8.20;1.00
1978;DHT22;989;53.016;8.346;2023-02-16T08:57:04;8.30;1.00
1978;DHT22;989;53.016;8.346;2023-02-16T08:59:30;8.40;1.00
1978;DHT22;989;53.016;8.346;2023-02-16T09:01:58;8.50;1.00
1978;DHT22;989;53.016;8.346;2023-02-16T09:04:24;8.80;1.00
1978;DHT22;989;53.016;8.346;2023-02-16T09:06:51;8.90;1.00
1978;DHT22;989;53.016;8.346;2023-02-16T09:09:18;9.10;1.00
1978;DHT22;989;53.016;8.346;2023-02-16T09:11:44;9.20;1.00
1978;DHT22;989;53.016;8.346;2023-02-16T09:14:12;9.20;1.00
1978;DHT22;989;53.016;8.346;2023-02-16T09:16:38;9.10;1.00
1978;DHT22;989;53.016;8.346;2023-02-16T09:19:10;9.20;1.00
1978;DHT22;989;53.016;8.346;2023-02-16T09:21:38;9.30;1.00
1978;DHT22;989;53.016;8.346;2023-02-16T09:24:05;9.10;1.00
1978;DHT22;989;53.016;8.346;2023-02-16T09:26:33;9.10;1.00
1978;DHT22;989;53.016;8.346;2023-02-16T09:29:06;9.10;1.00
1978;DHT22;989;53.016;8.346;2023-02-16T09:31:34;9.20;1.00
1978;DHT22;989;53.016;8.346;2023-02-16T09:34:19;9.30;1.00
1978;DHT22;989;53.016;8.346;2023-02-16T09:36:47;9.40;1.00
1978;DHT22;989;53.016;8.346;2023-02-16T09:39:14;9.50;1.00
1978;DHT22;989;53.016;8.346;2023-02-16T09:46:59;10.00;1.00
1978;DHT22;989;53.016;8.346;2023-02-16T09:49:31;10.20;1.00
1978;DHT22;989;53.016;8.346;2023-02-16T09:55:07;10.00;1.00
1978;DHT22;989;53.016;8.346;2023-02-16T09:57:48;9.70;1.00
1978;DHT22;989;53.016;8.346;2023-02-16T10:03:23;9.60;1.00
1978;DHT22;989;53.016;8.346;2023-02-16T10:09:15;10.00;1.00
1978;DHT22;989;53.016;8.346;2023-02-16T10:12:00;10.10;1.00
1978;DHT22;989;53.016;8.346;2023-02-16T10:14:51;10.20;1.00
1978;DHT22;989;53.016;8.346;2023-02-16T10:17:50;10.30;1.00
1978;DHT22;989;53.016;8.346;2023-02-16T10:20:24;10.20;1.00
1978;DHT22;989;53.016;8.346;2023-02-16T10:26:09;10.20;1.00
1978;DHT22;989;53.016;8.346;2023-02-16T10:28:47;10.30;1.00
1978;DHT22;989;53.016;8.346;2023-02-16T10:34:11;10.20;1.00
1978;DHT22;989;53.016;8.346;2023-02-16T10:37:05;10.30;1.00
1978;DHT22;989;53.016;8.346;2023-02-16T10:40:03;10.30;1.00
1978;DHT22;989;53.016;8.346;2023-02-16T10:42:41;10.30;1.00
1978;DHT22;989;53.016;8.346;2023-02-16T10:47:41;10.40;1.00
1978;DHT22;989;53.016;8.346;2023-02-16T10:50:22;10.30;1.00
1978;DHT22;989;53.016;8.346;2023-02-16T10:52:53;10.30;1.00
1978;DHT22;989;53.016;8.346;2023-02-16T10:55:22;10.50;1.00
1978;DHT22;989;53.016;8.346;2023-02-16T10:57:59;10.70;1.00
1978;DHT22;989;53.016;8.346;2023-02-16T11:03:24;10.60;1.00
1978;DHT22;989;53.016;8.346;2023-02-16T11:05:54;10.50;1.00
1978;DHT22;989;53.016;8.346;2023-02-16T11:08:20;10.20;1.00
1978;DHT22;989;53.016;8.346;2023-02-16T11:10:52;10.20;1.00
1978;DHT22;989;53.016;8.346;2023-02-16T11:13:30;10.10;1.00
1978;DHT22;989;53.016;8.346;2023-02-16T11:16:07;10.10;1.00
1978;DHT22;989;53.016;8.346;2023-02-16T11:18:38;10.00;1.00
1978;DHT22;989;53.016;8.346;2023-02-16T11:21:08;10.00;1.00
1978;DHT22;989;53.016;8.346;2023-02-16T11:23:37;10.10;1.00
1978;DHT22;989;53.016;8.346;2023-02-16T11:28:40;10.10;1.00
1978;DHT22;989;53.016;8.346;2023-02-16T11:34:00;10.20;1.00
1978;DHT22;989;53.016;8.346;2023-02-16T11:36:39;10.20;1.00
1978;DHT22;989;53.016;8.346;2023-02-16T11:41:44;10.30;1.00
1978;DHT22;989;53.016;8.346;2023-02-16T11:49:49;10.20;1.00
1978;DHT22;989;53.016;8.346;2023-02-16T11:52:19;10.00;1.00
1978;DHT22;989;53.016;8.346;2023-02-16T11:54:49;9.90;1.00
1978;DHT22;989;53.016;8.346;2023-02-16T11:57:26;9.80;1.00
1978;DHT22;989;53.016;8.346;2023-02-16T11:59:58;9.80;1.00
1978;DHT22;989;53.016;8.346;2023-02-16T12:05:46;9.70;1.00
1978;DHT22;989;53.016;8.346;2023-02-16T12:08:55;9.80;1.00
1978;DHT22;989;53.016;8.346;2023-02-16T12:11:40;9.80;1.00
1978;DHT22;989;53.016;8.346;2023-02-16T12:14:33;9.90;1.00
1978;DHT22;989;53.016;8.346;2023-02-16T12:17:27;9.80;1.00
1978;DHT22;989;53.016;8.346;2023-02-16T12:32:06;9.70;1.00
1978;DHT22;989;53.016;8.346;2023-02-16T12:34:51;9.60;1.00
1978;DHT22;989;53.016;8.346;2023-02-16T12:43:22;9.70;1.00
1978;DHT22;989;53.016;8.346;2023-02-16T12:45:55;9.70;1.00
1978;DHT22;989;53.016;8.346;2023-02-16T12:48:45;9.70;1.00
1978;DHT22;989;53.016;8.346;2023-02-16T12:51:25;9.70;1.00
1978;DHT22;989;53.016;8.346;2023-02-16T12:54:00;9.60;1.00
1978;DHT22;989;53.016;8.346;2023-02-16T12:56:41;9.60;4.60
1978;DHT22;989;53.016;8.346;2023-02-16T12:59:23;9.50;7.60
1978;DHT22;989;53.016;8.346;2023-02-16T13:01:55;9.50;15.20
1978;DHT22;989;53.016;8.346;2023-02-16T13:04:29;9.30;15.40
1978;DHT22;989;53.016;8.346;2023-02-16T13:07:33;9.40;22.80
1978;DHT22;989;53.016;8.346;2023-02-16T13:13:26;9.30;39.90
1978;DHT22;989;53.016;8.346;2023-02-16T13:18:32;9.20;50.40
1978;DHT22;989;53.016;8.346;2023-02-16T13:21:35;9.20;58.90
1978;DHT22;989;53.016;8.346;2023-02-16T13:27:16;9.30;74.40
1978;DHT22;989;53.016;8.346;2023-02-16T13:39:18;8.90;83.40
1978;DHT22;989;53.016;8.346;2023-02-16T13:42:04;8.80;86.50
1978;DHT22;989;53.016;8.346;2023-02-16T13:44:57;8.90;90.50
1978;DHT22;989;53.016;8.346;2023-02-16T13:47:37;8.80;90.20
1978;DHT22;989;53.016;8.346;2023-02-16T13:50:07;8.80;92.30
1978;DHT22;989;53.016;8.346;2023-02-16T13:52:50;8.80;93.30
1978;DHT22;989;53.016;8.346;2023-02-16T13:55:30;8.80;94.90
1978;DHT22;989;53.016;8.346;2023-02-16T13:58:47;8.80;93.60
1978;DHT22;989;53.016;8.346;2023-02-16T14:00:51;8.90;95.80
1978;DHT22;989;53.016;8.346;2023-02-16T14:05:52;8.80;95.10
1978;DHT22;989;53.016;8.346;2023-02-16T14:08:25;8.80;94.80
1978;DHT22;989;53.016;8.346;2023-02-16T14:13:24;8.90;94.90
1978;DHT22;989;53.016;8.346;2023-02-16T14:15:55;9.00;96.30
1978;DHT22;989;53.016;8.346;2023-02-16T14:19:30;9.00;97.00
1978;DHT22;989;53.016;8.346;2023-02-16T14:21:42;9.00;94.90
1978;DHT22;989;53.016;8.346;2023-02-16T14:24:33;9.10;98.30
1978;DHT22;989;53.016;8.346;2023-02-16T14:27:05;9.20;96.50
1978;DHT22;989;53.016;8.346;2023-02-16T14:29:40;9.20;95.50
1978;DHT22;989;53.016;8.346;2023-02-16T14:32:28;9.20;95.10
1978;DHT22;989;53.016;8.346;2023-02-16T14:37:55;9.50;99.90
1978;DHT22;989;53.016;8.346;2023-02-16T14:40:40;9.50;96.30
1978;DHT22;989;53.016;8.346;2023-02-16T14:43:32;9.60;99.50
1978;DHT22;989;53.016;8.346;2023-02-16T14:46:29;9.60;96.20
1978;DHT22;989;53.016;8.346;2023-02-16T14:52:34;9.50;95.10
1978;DHT22;989;53.016;8.346;2023-02-16T14:55:21;9.50;94.10
1978;DHT22;989;53.016;8.346;2023-02-16T14:58:50;9.50;94.50
1978;DHT22;989;53.016;8.346;2023-02-16T15:01:21;9.50;96.00
1978;DHT22;989;53.016;8.346;2023-02-16T15:03:53;9.50;96.20
1978;DHT22;989;53.016;8.346;2023-02-16T15:09:23;9.50;94.30
1978;DHT22;989;53.016;8.346;2023-02-16T15:11:54;9.50;94.20
1978;DHT22;989;53.016;8.346;2023-02-16T15:14:53;9.40;93.20
1978;DHT22;989;53.016;8.346;2023-02-16T15:17:27;9.40;94.70
1978;DHT22;989;53.016;8.346;2023-02-16T15:20:19;9.40;95.90
1978;DHT22;989;53.016;8.346;2023-02-16T15:22:57;9.50;96.00
1978;DHT22;989;53.016;8.346;2023-02-16T15:25:30;9.50;95.30
1978;DHT22;989;53.016;8.346;2023-02-16T15:28:02;9.50;94.40
1978;DHT22;989;53.016;8.346;2023-02-16T15:30:41;9.40;94.80
1978;DHT22;989;53.016;8.346;2023-02-16T15:35:58;9.40;94.60
1978;DHT22;989;53.016;8.346;2023-02-16T15:38:31;9.40;97.20
1978;DHT22;989;53.016;8.346;2023-02-16T15:41:08;9.30;96.10
1978;DHT22;989;53.016;8.346;2023-02-16T15:43:46;9.40;96.90
1978;DHT22;989;53.016;8.346;2023-02-16T15:49:12;9.40;98.30
1978;DHT22;989;53.016;8.346;2023-02-16T15:51:39;9.40;97.70
1978;DHT22;989;53.016;8.346;2023-02-16T15:54:12;9.40;98.10
1978;DHT22;989;53.016;8.346;2023-02-16T15:56:51;9.40;98.70
1978;DHT22;989;53.016;8.346;2023-02-16T16:02:30;9.30;98.80
1978;DHT22;989;53.016;8.346;2023-02-16T16:05:01;9.30;98.50
1978;DHT22;989;53.016;8.346;2023-02-16T16:07:36;9.30;99.40
1978;DHT22;989;53.016;8.346;2023-02-16T16:10:17;9.30;99.20
1978;DHT22;989;53.016;8.346;2023-02-16T16:12:48;9.30;99.50
1978;DHT22;989;53.016;8.346;2023-02-16T16:15:21;9.20;98.60
1978;DHT22;989;53.016;8.346;2023-02-16T16:17:50;9.30;99.90
1978;DHT22;989;53.016;8.346;2023-02-16T16:25:43;9.20;99.90
1978;DHT22;989;53.016;8.346;2023-02-16T16:28:33;9.20;99.90
1978;DHT22;989;53.016;8.346;2023-02-16T16:33:57;9.20;99.90
1978;DHT22;989;53.016;8.346;2023-02-16T16:36:53;9.10;99.90
1978;DHT22;989;53.016;8.346;2023-02-16T16:39:27;9.10;99.90
1978;DHT22;989;53.016;8.346;2023-02-16T16:42:08;9.10;99.90
1978;DHT22;989;53.016;8.346;2023-02-16T16:44:43;9.10;99.90
1978;DHT22;989;53.016;8.346;2023-02-16T16:50:32;9.10;99.90
1978;DHT22;989;53.016;8.346;2023-02-16T16:52:59;9.10;99.90
1978;DHT22;989;53.016;8.346;2023-02-16T16:55:43;9.00;99.90
1978;DHT22;989;53.016;8.346;2023-02-16T16:58:09;9.10;99.90
1978;DHT22;989;53.016;8.346;2023-02-16T17:00:37;9.00;99.90
1978;DHT22;989;53.016;8.346;2023-02-16T17:03:06;9.00;99.90
1978;DHT22;989;53.016;8.346;2023-02-16T17:05:34;9.10;99.90
1978;DHT22;989;53.016;8.346;2023-02-16T17:08:02;9.10;99.90
1978;DHT22;989;53.016;8.346;2023-02-16T17:10:28;9.00;99.90
1978;DHT22;989;53.016;8.346;2023-02-16T17:12:57;9.10;99.90
1978;DHT22;989;53.016;8.346;2023-02-16T17:15:41;9.00;99.90
1978;DHT22;989;53.016;8.346;2023-02-16T17:18:14;9.10;99.90
1978;DHT22;989;53.016;8.346;2023-02-16T17:20:42;9.10;99.90
1978;DHT22;989;53.016;8.346;2023-02-16T17:23:11;9.10;99.90
1978;DHT22;989;53.016;8.346;2023-02-16T17:25:38;9.00;99.90
1978;DHT22;989;53.016;8.346;2023-02-16T17:28:04;9.10;99.90
1978;DHT22;989;53.016;8.346;2023-02-16T17:30:32;9.10;99.90
1978;DHT22;989;53.016;8.346;2023-02-16T17:32:58;9.10;99.90
1978;DHT22;989;53.016;8.346;2023-02-16T17:35:24;9.10;99.90
1978;DHT22;989;53.016;8.346;2023-02-16T17:37:50;9.10;99.90
1978;DHT22;989;53.016;8.346;2023-02-16T17:40:19;9.10;99.90
1978;DHT22;989;53.016;8.346;2023-02-16T17:42:47;9.20;99.90
1978;DHT22;989;53.016;8.346;2023-02-16T17:45:15;9.20;99.90
1978;DHT22;989;53.016;8.346;2023-02-16T17:47:45;9.20;99.90
1978;DHT22;989;53.016;8.346;2023-02-16T17:50:13;9.20;99.90
1978;DHT22;989;53.016;8.346;2023-02-16T17:52:40;9.20;99.90
1978;DHT22;989;53.016;8.346;2023-02-16T17:55:08;9.20;99.90
1978;DHT22;989;53.016;8.346;2023-02-16T17:57:35;9.20;99.90
1978;DHT22;989;53.016;8.346;2023-02-16T18:00:02;9.20;99.90
1978;DHT22;989;53.016;8.346;2023-02-16T18:02:29;9.20;99.90
1978;DHT22;989;53.016;8.346;2023-02-16T18:04:55;9.20;99.90
1978;DHT22;989;53.016;8.346;2023-02-16T18:07:21;9.20;99.90
1978;DHT22;989;53.016;8.346;2023-02-16T18:09:47;9.20;99.90
1978;DHT22;989;53.016;8.346;2023-02-16T18:12:13;9.30;99.90
1978;DHT22;989;53.016;8.346;2023-02-16T18:14:39;9.20;99.90
1978;DHT22;989;53.016;8.346;2023-02-16T18:17:05;9.20;99.90
1978;DHT22;989;53.016;8.346;2023-02-16T18:19:31;9.20;99.90
1978;DHT22;989;53.016;8.346;2023-02-16T18:21:58;9.20;99.90
1978;DHT22;989;53.016;8.346;2023-02-16T18:24:24;9.20;99.90
1978;DHT22;989;53.016;8.346;2023-02-16T18:26:50;9.20;99.90
1978;DHT22;989;53.016;8.346;2023-02-16T18:29:16;9.20;99.90
1978;DHT22;989;53.016;8.346;2023-02-16T18:31:43;9.20;99.90
1978;DHT22;989;53.016;8.346;2023-02-16T18:34:10;9.20;99.90
1978;DHT22;989;53.016;8.346;2023-02-16T18:36:36;9.20;99.90
1978;DHT22;989;53.016;8.346;2023-02-16T18:39:06;9.10;99.90
1978;DHT22;989;53.016;8.346;2023-02-16T18:41:32;9.10;99.90
1978;DHT22;989;53.016;8.346;2023-02-16T18:43:59;9.10;99.90
1978;DHT22;989;53.016;8.346;2023-02-16T18:46:24;9.10;99.90
1978;DHT22;989;53.016;8.346;2023-02-16T18:48:50;9.10;99.90
1978;DHT22;989;53.016;8.346;2023-02-16T18:51:16;9.10;99.90
1978;DHT22;989;53.016;8.346;2023-02-16T18:53:42;9.20;99.90
1978;DHT22;989;53.016;8.346;2023-02-16T18:56:10;9.20;99.90
1978;DHT22;989;53.016;8.346;2023-02-16T18:58:38;9.20;99.90
1978;DHT22;989;53.016;8.346;2023-02-16T19:01:14;9.20;99.90
1978;DHT22;989;53.016;8.346;2023-02-16T19:03:45;9.20;99.90
1978;DHT22;989;53.016;8.346;2023-02-16T19:06:11;9.20;99.90
1978;DHT22;989;53.016;8.346;2023-02-16T19:08:36;9.20;99.90
1978;DHT22;989;53.016;8.346;2023-02-16T19:11:02;9.20;99.90
1978;DHT22;989;53.016;8.346;2023-02-16T19:13:28;9.20;99.90
1978;DHT22;989;53.016;8.346;2023-02-16T19:15:53;9.30;99.90
1978;DHT22;989;53.016;8.346;2023-02-16T19:18:19;9.30;99.90
1978;DHT22;989;53.016;8.346;2023-02-16T19:20:45;9.30;99.90
1978;DHT22;989;53.016;8.346;2023-02-16T19:23:10;9.30;99.90
1978;DHT22;989;53.016;8.346;2023-02-16T19:25:36;9.30;99.90
1978;DHT22;989;53.016;8.346;2023-02-16T19:28:01;9.30;99.90
1978;DHT22;989;53.016;8.346;2023-02-16T19:30:27;9.30;99.90
1978;DHT22;989;53.016;8.346;2023-02-16T19:32:54;9.40;99.90
1978;DHT22;989;53.016;8.346;2023-02-16T19:35:20;9.30;99.90
1978;DHT22;989;53.016;8.346;2023-02-16T19:37:46;9.30;99.90